sensor_id;sensor_type;location;lat;lon;timestamp;P1;durP1;ratioP1;P2;durP2;ratioP2
85295;SDS011;76389;43.958;2.882;2024-02-15T00:02:02;2.70;;;0.52;;
85295;SDS011;76389;43.958;2.882;2024-02-15T00:04:31;3.22;;;0.65;;
85295;SDS011;76389;43.958;2.882;2024-02-15T00:06:57;2.88;;;0.32;;
85295;SDS011;76389;43.958;2.882;2024-02-15T00:09:23;5.07;;;0.52;;
85295;SDS011;76389;43.958;2.882;2024-02-15T00:11:49;1.60;;;0.43;;
85295;SDS011;76389;43.958;2.882;2024-02-15T00:14:15;3.45;;;0.57;;
85295;SDS011;76389;43.958;2.882;2024-02-15T00:16:42;1.48;;;0.32;;
85295;SDS011;76389;43.958;2.882;2024-02-15T00:19:08;1.10;;;0.22;;
85295;SDS011;76389;43.958;2.882;2024-02-15T00:21:34;3.35;;;0.50;;
85295;SDS011;76389;43.958;2.882;2024-02-15T00:24:01;2.67;;;0.43;;
85295;SDS011;76389;43.958;2.882;2024-02-15T00:26:28;1.98;;;0.52;;
85295;SDS011;76389;43.958;2.882;2024-02-15T00:28:54;1.85;;;0.45;;
85295;SDS011;76389;43.958;2.882;2024-02-15T00:31:20;3.25;;;0.82;;
85295;SDS011;76389;43.958;2.882;2024-02-15T00:33:46;3.47;;;0.68;;
85295;SDS011;76389;43.958;2.882;2024-02-15T00:36:12;3.72;;;0.70;;
85295;SDS011;76389;43.958;2.882;2024-02-15T00:38:38;2.50;;;0.47;;
85295;SDS011;76389;43.958;2.882;2024-02-15T00:41:05;2.50;;;0.57;;
85295;SDS011;76389;43.958;2.882;2024-02-15T00:43:33;1.67;;;0.35;;
85295;SDS011;76389;43.958;2.882;2024-02-15T00:46:01;2.25;;;0.68;;
85295;SDS011;76389;43.958;2.882;2024-02-15T00:48:27;3.40;;;0.40;;
85295;SDS011;76389;43.958;2.882;2024-02-15T00:50:56;0.98;;;0.20;;
85295;SDS011;76389;43.958;2.882;2024-02-15T00:53:23;2.33;;;0.52;;
85295;SDS011;76389;43.958;2.882;2024-02-15T00:55:49;1.95;;;0.43;;
85295;SDS011;76389;43.958;2.882;2024-02-15T00:58:15;1.33;;;0.35;;
85295;SDS011;76389;43.958;2.882;2024-02-15T01:00:41;0.75;;;0.28;;
85295;SDS011;76389;43.958;2.882;2024-02-15T01:03:07;1.63;;;0.50;;
85295;SDS011;76389;43.958;2.882;2024-02-15T01:05:33;0.77;;;0.20;;
85295;SDS011;76389;43.958;2.882;2024-02-15T01:08:00;1.45;;;0.22;;
85295;SDS011;76389;43.958;2.882;2024-02-15T01:10:26;2.22;;;0.50;;
85295;SDS011;76389;43.958;2.882;2024-02-15T01:12:52;2.97;;;0.57;;
85295;SDS011;76389;43.958;2.882;2024-02-15T01:15:18;1.63;;;0.25;;
85295;SDS011;76389;43.958;2.882;2024-02-15T01:17:45;2.85;;;0.30;;
85295;SDS011;76389;43.958;2.882;2024-02-15T01:20:11;2.28;;;0.52;;
85295;SDS011;76389;43.958;2.882;2024-02-15T01:22:37;3.03;;;0.40;;
85295;SDS011;76389;43.958;2.882;2024-02-15T01:25:03;1.60;;;0.40;;
85295;SDS011;76389;43.958;2.882;2024-02-15T01:27:30;1.00;;;0.30;;
85295;SDS011;76389;43.958;2.882;2024-02-15T01:29:56;1.55;;;0.20;;
85295;SDS011;76389;43.958;2.882;2024-02-15T01:32:22;1.25;;;0.30;;
85295;SDS011;76389;43.958;2.882;2024-02-15T01:34:48;1.17;;;0.20;;
85295;SDS011;76389;43.958;2.882;2024-02-15T01:37:19;2.25;;;0.60;;
85295;SDS011;76389;43.958;2.882;2024-02-15T01:39:50;1.20;;;0.20;;
85295;SDS011;76389;43.958;2.882;2024-02-15T01:42:16;2.22;;;0.43;;
85295;SDS011;76389;43.958;2.882;2024-02-15T01:44:42;1.48;;;0.38;;
85295;SDS011;76389;43.958;2.882;2024-02-15T01:47:11;1.48;;;0.28;;
85295;SDS011;76389;43.958;2.882;2024-02-15T01:49:37;1.75;;;0.32;;
85295;SDS011;76389;43.958;2.882;2024-02-15T01:52:04;0.65;;;0.20;;
85295;SDS011;76389;43.958;2.882;2024-02-15T01:54:32;2.08;;;0.40;;
85295;SDS011;76389;43.958;2.882;2024-02-15T01:56:58;1.40;;;0.32;;
85295;SDS011;76389;43.958;2.882;2024-02-15T01:59:25;1.58;;;0.20;;
85295;SDS011;76389;43.958;2.882;2024-02-15T02:01:51;0.90;;;0.35;;
85295;SDS011;76389;43.958;2.882;2024-02-15T02:04:17;1.55;;;0.38;;
85295;SDS011;76389;43.958;2.882;2024-02-15T02:06:43;2.53;;;0.30;;
85295;SDS011;76389;43.958;2.882;2024-02-15T02:09:10;1.08;;;0.28;;
85295;SDS011;76389;43.958;2.882;2024-02-15T02:11:38;3.20;;;0.73;;
85295;SDS011;76389;43.958;2.882;2024-02-15T02:14:04;0.43;;;0.22;;
85295;SDS011;76389;43.958;2.882;2024-02-15T02:16:31;0.68;;;0.17;;
85295;SDS011;76389;43.958;2.882;2024-02-15T02:18:57;1.48;;;0.20;;
85295;SDS011;76389;43.958;2.882;2024-02-15T02:21:25;1.02;;;0.22;;
85295;SDS011;76389;43.958;2.882;2024-02-15T02:23:52;2.05;;;0.43;;
85295;SDS011;76389;43.958;2.882;2024-02-15T02:26:20;2.30;;;0.40;;
85295;SDS011;76389;43.958;2.882;2024-02-15T02:28:47;1.30;;;0.25;;
85295;SDS011;76389;43.958;2.882;2024-02-15T02:31:14;2.92;;;0.32;;
85295;SDS011;76389;43.958;2.882;2024-02-15T02:33:41;1.08;;;0.20;;
85295;SDS011;76389;43.958;2.882;2024-02-15T02:36:10;1.65;;;0.32;;
85295;SDS011;76389;43.958;2.882;2024-02-15T02:38:37;1.25;;;0.43;;
85295;SDS011;76389;43.958;2.882;2024-02-15T02:41:04;2.42;;;0.50;;
85295;SDS011;76389;43.958;2.882;2024-02-15T02:43:30;2.13;;;0.43;;
85295;SDS011;76389;43.958;2.882;2024-02-15T02:45:56;2.47;;;0.50;;
85295;SDS011;76389;43.958;2.882;2024-02-15T02:48:22;1.38;;;0.20;;
85295;SDS011;76389;43.958;2.882;2024-02-15T02:50:49;2.20;;;0.45;;
85295;SDS011;76389;43.958;2.882;2024-02-15T02:53:15;1.40;;;0.22;;
85295;SDS011;76389;43.958;2.882;2024-02-15T02:55:41;2.72;;;0.43;;
85295;SDS011;76389;43.958;2.882;2024-02-15T02:58:08;2.40;;;0.38;;
85295;SDS011;76389;43.958;2.882;2024-02-15T03:00:34;0.60;;;0.15;;
85295;SDS011;76389;43.958;2.882;2024-02-15T03:03:00;3.80;;;0.38;;
85295;SDS011;76389;43.958;2.882;2024-02-15T03:05:26;0.95;;;0.10;;
85295;SDS011;76389;43.958;2.882;2024-02-15T03:07:52;1.17;;;0.20;;
85295;SDS011;76389;43.958;2.882;2024-02-15T03:10:19;0.82;;;0.30;;
85295;SDS011;76389;43.958;2.882;2024-02-15T03:12:46;1.48;;;0.40;;
85295;SDS011;76389;43.958;2.882;2024-02-15T03:15:12;2.42;;;0.50;;
85295;SDS011;76389;43.958;2.882;2024-02-15T03:17:39;0.80;;;0.30;;
85295;SDS011;76389;43.958;2.882;2024-02-15T03:20:06;1.73;;;0.30;;
85295;SDS011;76389;43.958;2.882;2024-02-15T03:22:53;0.57;;;0.22;;
85295;SDS011;76389;43.958;2.882;2024-02-15T03:25:20;1.27;;;0.20;;
85295;SDS011;76389;43.958;2.882;2024-02-15T03:27:49;1.17;;;0.52;;
85295;SDS011;76389;43.958;2.882;2024-02-15T03:30:17;1.95;;;0.43;;
85295;SDS011;76389;43.958;2.882;2024-02-15T03:32:46;1.10;;;0.22;;
85295;SDS011;76389;43.958;2.882;2024-02-15T03:35:18;2.20;;;0.52;;
85295;SDS011;76389;43.958;2.882;2024-02-15T03:37:45;0.90;;;0.20;;
85295;SDS011;76389;43.958;2.882;2024-02-15T03:40:11;0.98;;;0.22;;
85295;SDS011;76389;43.958;2.882;2024-02-15T03:42:37;1.40;;;0.50;;
85295;SDS011;76389;43.958;2.882;2024-02-15T03:45:04;2.33;;;0.43;;
85295;SDS011;76389;43.958;2.882;2024-02-15T03:47:32;4.63;;;1.00;;
85295;SDS011;76389;43.958;2.882;2024-02-15T03:49:59;2.28;;;0.50;;
85295;SDS011;76389;43.958;2.882;2024-02-15T03:52:25;5.28;;;0.52;;
85295;SDS011;76389;43.958;2.882;2024-02-15T03:54:51;1.42;;;0.32;;
85295;SDS011;76389;43.958;2.882;2024-02-15T03:57:18;1.65;;;0.30;;
85295;SDS011;76389;43.958;2.882;2024-02-15T04:02:16;2.92;;;0.57;;
85295;SDS011;76389;43.958;2.882;2024-02-15T04:04:42;1.50;;;0.30;;
85295;SDS011;76389;43.958;2.882;2024-02-15T04:07:08;1.10;;;0.30;;
85295;SDS011;76389;43.958;2.882;2024-02-15T04:09:37;1.40;;;0.32;;
85295;SDS011;76389;43.958;2.882;2024-02-15T04:12:03;2.08;;;0.50;;
85295;SDS011;76389;43.958;2.882;2024-02-15T04:14:29;1.60;;;0.50;;
85295;SDS011;76389;43.958;2.882;2024-02-15T04:16:59;1.77;;;0.63;;
85295;SDS011;76389;43.958;2.882;2024-02-15T04:19:25;1.83;;;0.32;;
85295;SDS011;76389;43.958;2.882;2024-02-15T04:21:51;1.02;;;0.30;;
85295;SDS011;76389;43.958;2.882;2024-02-15T04:24:17;2.83;;;0.40;;
85295;SDS011;76389;43.958;2.882;2024-02-15T04:26:43;1.13;;;0.20;;
85295;SDS011;76389;43.958;2.882;2024-02-15T04:29:12;3.17;;;0.32;;
85295;SDS011;76389;43.958;2.882;2024-02-15T04:31:40;2.88;;;0.35;;
85295;SDS011;76389;43.958;2.882;2024-02-15T04:34:08;0.45;;;0.10;;
85295;SDS011;76389;43.958;2.882;2024-02-15T04:36:35;1.60;;;0.32;;
85295;SDS011;76389;43.958;2.882;2024-02-15T04:39:01;1.48;;;0.35;;
85295;SDS011;76389;43.958;2.882;2024-02-15T04:41:28;3.55;;;0.50;;
85295;SDS011;76389;43.958;2.882;2024-02-15T04:43:54;3.55;;;0.20;;
85295;SDS011;76389;43.958;2.882;2024-02-15T04:46:20;1.52;;;0.43;;
85295;SDS011;76389;43.958;2.882;2024-02-15T04:48:48;2.25;;;0.30;;
85295;SDS011;76389;43.958;2.882;2024-02-15T04:51:15;2.30;;;0.32;;
85295;SDS011;76389;43.958;2.882;2024-02-15T04:53:43;3.75;;;0.52;;
85295;SDS011;76389;43.958;2.882;2024-02-15T04:56:12;1.77;;;0.40;;
85295;SDS011;76389;43.958;2.882;2024-02-15T04:58:39;1.00;;;0.25;;
85295;SDS011;76389;43.958;2.882;2024-02-15T05:01:12;1.33;;;0.32;;
85295;SDS011;76389;43.958;2.882;2024-02-15T05:03:39;2.03;;;0.50;;
85295;SDS011;76389;43.958;2.882;2024-02-15T05:06:05;2.28;;;0.40;;
85295;SDS011;76389;43.958;2.882;2024-02-15T05:08:33;4.95;;;0.50;;
85295;SDS011;76389;43.958;2.882;2024-02-15T05:11:02;1.88;;;0.38;;
85295;SDS011;76389;43.958;2.882;2024-02-15T05:13:29;2.15;;;0.60;;
85295;SDS011;76389;43.958;2.882;2024-02-15T05:15:55;5.45;;;0.65;;
85295;SDS011;76389;43.958;2.882;2024-02-15T05:18:22;4.57;;;1.00;;
85295;SDS011;76389;43.958;2.882;2024-02-15T05:20:48;2.78;;;0.93;;
85295;SDS011;76389;43.958;2.882;2024-02-15T05:23:14;4.50;;;0.82;;
85295;SDS011;76389;43.958;2.882;2024-02-15T05:25:42;4.80;;;1.08;;
85295;SDS011;76389;43.958;2.882;2024-02-15T05:28:09;3.13;;;1.23;;
85295;SDS011;76389;43.958;2.882;2024-02-15T05:30:35;2.95;;;1.17;;
85295;SDS011;76389;43.958;2.882;2024-02-15T05:33:04;4.75;;;1.15;;
85295;SDS011;76389;43.958;2.882;2024-02-15T05:35:35;4.32;;;1.15;;
85295;SDS011;76389;43.958;2.882;2024-02-15T05:38:04;4.00;;;1.13;;
85295;SDS011;76389;43.958;2.882;2024-02-15T05:40:32;2.83;;;0.80;;
85295;SDS011;76389;43.958;2.882;2024-02-15T05:42:58;2.30;;;0.75;;
85295;SDS011;76389;43.958;2.882;2024-02-15T05:47:51;3.88;;;1.27;;
85295;SDS011;76389;43.958;2.882;2024-02-15T05:50:18;4.03;;;1.63;;
85295;SDS011;76389;43.958;2.882;2024-02-15T05:52:47;4.72;;;1.85;;
85295;SDS011;76389;43.958;2.882;2024-02-15T05:55:13;7.90;;;2.08;;
85295;SDS011;76389;43.958;2.882;2024-02-15T05:57:43;5.85;;;1.77;;
85295;SDS011;76389;43.958;2.882;2024-02-15T06:00:09;3.53;;;1.45;;
85295;SDS011;76389;43.958;2.882;2024-02-15T06:02:36;7.38;;;1.83;;
85295;SDS011;76389;43.958;2.882;2024-02-15T06:05:02;4.07;;;1.50;;
85295;SDS011;76389;43.958;2.882;2024-02-15T06:07:30;6.85;;;2.20;;
85295;SDS011;76389;43.958;2.882;2024-02-15T06:09:57;9.02;;;2.08;;
85295;SDS011;76389;43.958;2.882;2024-02-15T06:12:28;6.63;;;2.30;;
85295;SDS011;76389;43.958;2.882;2024-02-15T06:14:55;7.00;;;2.38;;
85295;SDS011;76389;43.958;2.882;2024-02-15T06:17:21;10.20;;;2.13;;
85295;SDS011;76389;43.958;2.882;2024-02-15T06:19:47;5.68;;;1.83;;
85295;SDS011;76389;43.958;2.882;2024-02-15T06:22:13;6.38;;;2.40;;
85295;SDS011;76389;43.958;2.882;2024-02-15T06:24:40;5.28;;;1.88;;
85295;SDS011;76389;43.958;2.882;2024-02-15T06:27:07;7.88;;;2.03;;
85295;SDS011;76389;43.958;2.882;2024-02-15T06:29:33;2.95;;;1.25;;
85295;SDS011;76389;43.958;2.882;2024-02-15T06:32:18;4.75;;;1.90;;
85295;SDS011;76389;43.958;2.882;2024-02-15T06:35:04;6.47;;;2.13;;
85295;SDS011;76389;43.958;2.882;2024-02-15T06:37:50;5.75;;;2.63;;
85295;SDS011;76389;43.958;2.882;2024-02-15T06:40:36;10.32;;;2.90;;
85295;SDS011;76389;43.958;2.882;2024-02-15T06:43:02;8.35;;;2.60;;
85295;SDS011;76389;43.958;2.882;2024-02-15T06:45:28;2.50;;;1.05;;
85295;SDS011;76389;43.958;2.882;2024-02-15T06:47:57;5.63;;;1.35;;
85295;SDS011;76389;43.958;2.882;2024-02-15T06:50:23;8.38;;;2.53;;
85295;SDS011;76389;43.958;2.882;2024-02-15T06:52:51;6.85;;;2.60;;
85295;SDS011;76389;43.958;2.882;2024-02-15T06:55:18;5.72;;;2.42;;
85295;SDS011;76389;43.958;2.882;2024-02-15T06:57:47;16.17;;;2.72;;
85295;SDS011;76389;43.958;2.882;2024-02-15T07:00:13;10.50;;;2.65;;
85295;SDS011;76389;43.958;2.882;2024-02-15T07:02:41;7.57;;;3.35;;
85295;SDS011;76389;43.958;2.882;2024-02-15T07:05:09;7.07;;;2.28;;
85295;SDS011;76389;43.958;2.882;2024-02-15T07:07:36;7.88;;;2.55;;
85295;SDS011;76389;43.958;2.882;2024-02-15T07:10:06;10.43;;;2.80;;
85295;SDS011;76389;43.958;2.882;2024-02-15T07:12:33;9.27;;;2.92;;
85295;SDS011;76389;43.958;2.882;2024-02-15T07:14:59;10.05;;;3.05;;
85295;SDS011;76389;43.958;2.882;2024-02-15T07:17:27;7.50;;;3.60;;
85295;SDS011;76389;43.958;2.882;2024-02-15T07:19:53;10.45;;;3.15;;
85295;SDS011;76389;43.958;2.882;2024-02-15T07:22:20;6.22;;;2.58;;
85295;SDS011;76389;43.958;2.882;2024-02-15T07:24:47;23.40;;;3.38;;
85295;SDS011;76389;43.958;2.882;2024-02-15T07:27:13;4.80;;;2.05;;
85295;SDS011;76389;43.958;2.882;2024-02-15T07:29:39;11.73;;;3.15;;
85295;SDS011;76389;43.958;2.882;2024-02-15T07:32:06;9.25;;;3.22;;
85295;SDS011;76389;43.958;2.882;2024-02-15T07:34:33;11.00;;;3.17;;
85295;SDS011;76389;43.958;2.882;2024-02-15T07:37:01;7.15;;;2.40;;
85295;SDS011;76389;43.958;2.882;2024-02-15T07:39:28;10.88;;;3.40;;
85295;SDS011;76389;43.958;2.882;2024-02-15T07:41:54;6.90;;;2.55;;
85295;SDS011;76389;43.958;2.882;2024-02-15T07:44:21;9.95;;;2.58;;
85295;SDS011;76389;43.958;2.882;2024-02-15T07:46:48;12.10;;;3.33;;
85295;SDS011;76389;43.958;2.882;2024-02-15T07:49:15;6.97;;;2.78;;
85295;SDS011;76389;43.958;2.882;2024-02-15T07:51:43;9.70;;;3.35;;
85295;SDS011;76389;43.958;2.882;2024-02-15T07:54:09;14.48;;;3.33;;
85295;SDS011;76389;43.958;2.882;2024-02-15T07:56:36;7.38;;;2.63;;
85295;SDS011;76389;43.958;2.882;2024-02-15T07:59:02;7.35;;;3.20;;
85295;SDS011;76389;43.958;2.882;2024-02-15T08:01:28;7.90;;;3.35;;
85295;SDS011;76389;43.958;2.882;2024-02-15T08:03:56;14.30;;;3.40;;
85295;SDS011;76389;43.958;2.882;2024-02-15T08:06:22;7.97;;;3.38;;
85295;SDS011;76389;43.958;2.882;2024-02-15T08:08:53;13.18;;;3.22;;
85295;SDS011;76389;43.958;2.882;2024-02-15T08:11:19;7.55;;;3.20;;
85295;SDS011;76389;43.958;2.882;2024-02-15T08:13:45;11.25;;;2.75;;
85295;SDS011;76389;43.958;2.882;2024-02-15T08:16:16;7.20;;;2.53;;
85295;SDS011;76389;43.958;2.882;2024-02-15T08:18:43;3.78;;;1.70;;
85295;SDS011;76389;43.958;2.882;2024-02-15T08:23:36;3.72;;;1.83;;
85295;SDS011;76389;43.958;2.882;2024-02-15T08:26:03;5.63;;;1.23;;
85295;SDS011;76389;43.958;2.882;2024-02-15T08:28:29;5.00;;;1.80;;
85295;SDS011;76389;43.958;2.882;2024-02-15T08:30:55;3.30;;;1.33;;
85295;SDS011;76389;43.958;2.882;2024-02-15T08:33:24;7.38;;;1.77;;
85295;SDS011;76389;43.958;2.882;2024-02-15T08:35:53;5.60;;;2.10;;
85295;SDS011;76389;43.958;2.882;2024-02-15T08:38:21;5.47;;;1.73;;
85295;SDS011;76389;43.958;2.882;2024-02-15T08:40:48;5.32;;;1.92;;
85295;SDS011;76389;43.958;2.882;2024-02-15T08:43:14;5.93;;;1.73;;
85295;SDS011;76389;43.958;2.882;2024-02-15T08:45:42;4.25;;;1.63;;
85295;SDS011;76389;43.958;2.882;2024-02-15T08:48:08;5.82;;;1.67;;
85295;SDS011;76389;43.958;2.882;2024-02-15T08:50:35;8.23;;;1.90;;
85295;SDS011;76389;43.958;2.882;2024-02-15T08:53:01;8.18;;;1.90;;
85295;SDS011;76389;43.958;2.882;2024-02-15T08:55:31;7.32;;;2.17;;
85295;SDS011;76389;43.958;2.882;2024-02-15T08:57:57;5.70;;;1.50;;
85295;SDS011;76389;43.958;2.882;2024-02-15T09:00:25;4.45;;;1.77;;
85295;SDS011;76389;43.958;2.882;2024-02-15T09:02:52;7.25;;;2.42;;
85295;SDS011;76389;43.958;2.882;2024-02-15T09:05:18;5.15;;;1.92;;
85295;SDS011;76389;43.958;2.882;2024-02-15T09:07:47;5.63;;;1.38;;
85295;SDS011;76389;43.958;2.882;2024-02-15T09:10:15;4.15;;;1.98;;
85295;SDS011;76389;43.958;2.882;2024-02-15T09:12:43;7.90;;;3.50;;
85295;SDS011;76389;43.958;2.882;2024-02-15T09:15:12;7.65;;;2.25;;
85295;SDS011;76389;43.958;2.882;2024-02-15T09:17:39;11.30;;;3.15;;
85295;SDS011;76389;43.958;2.882;2024-02-15T09:22:34;5.85;;;2.40;;
85295;SDS011;76389;43.958;2.882;2024-02-15T09:25:02;5.43;;;2.42;;
85295;SDS011;76389;43.958;2.882;2024-02-15T09:27:29;5.68;;;2.38;;
85295;SDS011;76389;43.958;2.882;2024-02-15T09:29:55;8.73;;;3.08;;
85295;SDS011;76389;43.958;2.882;2024-02-15T09:32:21;6.15;;;2.25;;
85295;SDS011;76389;43.958;2.882;2024-02-15T09:34:47;5.22;;;2.33;;
85295;SDS011;76389;43.958;2.882;2024-02-15T09:37:14;7.15;;;2.92;;
85295;SDS011;76389;43.958;2.882;2024-02-15T09:39:40;7.53;;;2.83;;
85295;SDS011;76389;43.958;2.882;2024-02-15T09:42:07;6.88;;;2.28;;
85295;SDS011;76389;43.958;2.882;2024-02-15T09:44:33;5.05;;;2.60;;
85295;SDS011;76389;43.958;2.882;2024-02-15T09:47:04;7.00;;;1.98;;
85295;SDS011;76389;43.958;2.882;2024-02-15T09:49:36;8.95;;;2.55;;
85295;SDS011;76389;43.958;2.882;2024-02-15T09:52:07;6.88;;;2.38;;
85295;SDS011;76389;43.958;2.882;2024-02-15T09:54:40;7.00;;;2.13;;
85295;SDS011;76389;43.958;2.882;2024-02-15T09:57:10;6.93;;;1.70;;
85295;SDS011;76389;43.958;2.882;2024-02-15T09:59:38;4.88;;;1.67;;
85295;SDS011;76389;43.958;2.882;2024-02-15T10:02:05;4.63;;;1.70;;
85295;SDS011;76389;43.958;2.882;2024-02-15T10:04:39;7.88;;;2.40;;
85295;SDS011;76389;43.958;2.882;2024-02-15T10:07:05;6.78;;;2.58;;
85295;SDS011;76389;43.958;2.882;2024-02-15T10:09:34;5.03;;;1.83;;
85295;SDS011;76389;43.958;2.882;2024-02-15T10:12:02;5.97;;;1.90;;
85295;SDS011;76389;43.958;2.882;2024-02-15T10:14:32;6.97;;;2.20;;
85295;SDS011;76389;43.958;2.882;2024-02-15T10:17:05;2.78;;;1.17;;
85295;SDS011;76389;43.958;2.882;2024-02-15T10:19:35;7.18;;;2.25;;
85295;SDS011;76389;43.958;2.882;2024-02-15T10:22:06;8.48;;;2.28;;
85295;SDS011;76389;43.958;2.882;2024-02-15T10:24:33;7.47;;;2.60;;
85295;SDS011;76389;43.958;2.882;2024-02-15T10:27:01;7.47;;;2.38;;
85295;SDS011;76389;43.958;2.882;2024-02-15T10:29:33;5.78;;;2.47;;
85295;SDS011;76389;43.958;2.882;2024-02-15T10:32:00;8.75;;;3.13;;
85295;SDS011;76389;43.958;2.882;2024-02-15T10:34:27;8.40;;;2.80;;
85295;SDS011;76389;43.958;2.882;2024-02-15T10:36:54;7.55;;;2.97;;
85295;SDS011;76389;43.958;2.882;2024-02-15T10:39:22;6.45;;;2.63;;
85295;SDS011;76389;43.958;2.882;2024-02-15T10:41:50;7.20;;;3.10;;
85295;SDS011;76389;43.958;2.882;2024-02-15T10:44:18;8.07;;;2.50;;
85295;SDS011;76389;43.958;2.882;2024-02-15T10:46:46;9.05;;;2.47;;
85295;SDS011;76389;43.958;2.882;2024-02-15T10:49:17;6.40;;;1.95;;
85295;SDS011;76389;43.958;2.882;2024-02-15T10:51:44;7.90;;;2.03;;
85295;SDS011;76389;43.958;2.882;2024-02-15T10:54:12;7.38;;;2.42;;
85295;SDS011;76389;43.958;2.882;2024-02-15T10:59:17;6.35;;;2.47;;
85295;SDS011;76389;43.958;2.882;2024-02-15T11:01:45;6.72;;;2.03;;
85295;SDS011;76389;43.958;2.882;2024-02-15T11:04:14;14.27;;;2.78;;
85295;SDS011;76389;43.958;2.882;2024-02-15T11:06:42;6.20;;;2.45;;
85295;SDS011;76389;43.958;2.882;2024-02-15T11:09:09;7.43;;;2.00;;
85295;SDS011;76389;43.958;2.882;2024-02-15T11:11:37;11.52;;;2.15;;
85295;SDS011;76389;43.958;2.882;2024-02-15T11:14:23;4.20;;;1.48;;
85295;SDS011;76389;43.958;2.882;2024-02-15T11:16:49;7.00;;;2.15;;
85295;SDS011;76389;43.958;2.882;2024-02-15T11:22:04;7.50;;;2.00;;
85295;SDS011;76389;43.958;2.882;2024-02-15T11:24:36;3.90;;;1.55;;
85295;SDS011;76389;43.958;2.882;2024-02-15T11:27:03;6.70;;;1.33;;
85295;SDS011;76389;43.958;2.882;2024-02-15T11:32:36;4.75;;;2.00;;
85295;SDS011;76389;43.958;2.882;2024-02-15T11:35:06;5.65;;;1.95;;
85295;SDS011;76389;43.958;2.882;2024-02-15T11:40:15;5.55;;;1.58;;
85295;SDS011;76389;43.958;2.882;2024-02-15T11:42:42;6.13;;;1.80;;
85295;SDS011;76389;43.958;2.882;2024-02-15T11:45:09;7.22;;;1.63;;
85295;SDS011;76389;43.958;2.882;2024-02-15T11:47:38;3.78;;;1.38;;
85295;SDS011;76389;43.958;2.882;2024-02-15T11:50:08;10.73;;;2.15;;
85295;SDS011;76389;43.958;2.882;2024-02-15T11:52:38;10.05;;;2.08;;
85295;SDS011;76389;43.958;2.882;2024-02-15T11:57:36;3.40;;;1.08;;
85295;SDS011;76389;43.958;2.882;2024-02-15T12:00:23;5.93;;;1.92;;
85295;SDS011;76389;43.958;2.882;2024-02-15T12:03:09;5.85;;;1.67;;
85295;SDS011;76389;43.958;2.882;2024-02-15T12:05:55;5.78;;;1.98;;
85295;SDS011;76389;43.958;2.882;2024-02-15T12:08:45;7.60;;;2.00;;
85295;SDS011;76389;43.958;2.882;2024-02-15T12:11:32;7.90;;;1.83;;
85295;SDS011;76389;43.958;2.882;2024-02-15T12:14:18;4.38;;;1.73;;
85295;SDS011;76389;43.958;2.882;2024-02-15T12:17:05;3.95;;;1.90;;
85295;SDS011;76389;43.958;2.882;2024-02-15T12:19:52;5.47;;;1.88;;
85295;SDS011;76389;43.958;2.882;2024-02-15T12:22:24;4.53;;;0.82;;
85295;SDS011;76389;43.958;2.882;2024-02-15T12:24:53;4.30;;;1.48;;
85295;SDS011;76389;43.958;2.882;2024-02-15T12:27:20;6.25;;;1.77;;
85295;SDS011;76389;43.958;2.882;2024-02-15T12:29:52;7.15;;;1.98;;
85295;SDS011;76389;43.958;2.882;2024-02-15T12:32:24;6.28;;;2.17;;
85295;SDS011;76389;43.958;2.882;2024-02-15T12:34:51;5.85;;;2.08;;
85295;SDS011;76389;43.958;2.882;2024-02-15T12:37:21;5.13;;;1.52;;
85295;SDS011;76389;43.958;2.882;2024-02-15T12:39:49;6.30;;;1.63;;
85295;SDS011;76389;43.958;2.882;2024-02-15T12:42:15;5.65;;;1.95;;
85295;SDS011;76389;43.958;2.882;2024-02-15T12:44:43;6.05;;;1.90;;
85295;SDS011;76389;43.958;2.882;2024-02-15T12:49:45;8.27;;;2.53;;
85295;SDS011;76389;43.958;2.882;2024-02-15T12:52:39;7.22;;;1.92;;
85295;SDS011;76389;43.958;2.882;2024-02-15T12:55:06;5.82;;;1.63;;
85295;SDS011;76389;43.958;2.882;2024-02-15T12:57:34;5.53;;;1.77;;
85295;SDS011;76389;43.958;2.882;2024-02-15T13:00:01;6.90;;;2.33;;
85295;SDS011;76389;43.958;2.882;2024-02-15T13:02:36;4.80;;;2.30;;
85295;SDS011;76389;43.958;2.882;2024-02-15T13:05:04;4.60;;;1.73;;
85295;SDS011;76389;43.958;2.882;2024-02-15T13:07:30;6.70;;;2.65;;
85295;SDS011;76389;43.958;2.882;2024-02-15T13:09:56;5.53;;;2.15;;
85295;SDS011;76389;43.958;2.882;2024-02-15T13:12:22;7.03;;;2.35;;
85295;SDS011;76389;43.958;2.882;2024-02-15T13:14:48;6.25;;;2.30;;
85295;SDS011;76389;43.958;2.882;2024-02-15T13:17:15;5.55;;;1.63;;
85295;SDS011;76389;43.958;2.882;2024-02-15T13:19:45;6.20;;;1.65;;
85295;SDS011;76389;43.958;2.882;2024-02-15T13:22:14;4.80;;;1.60;;
85295;SDS011;76389;43.958;2.882;2024-02-15T13:24:42;5.07;;;1.45;;
85295;SDS011;76389;43.958;2.882;2024-02-15T13:27:09;5.28;;;1.80;;
85295;SDS011;76389;43.958;2.882;2024-02-15T13:29:38;8.18;;;1.75;;
85295;SDS011;76389;43.958;2.882;2024-02-15T13:32:06;7.65;;;2.13;;
85295;SDS011;76389;43.958;2.882;2024-02-15T13:34:32;9.80;;;2.42;;
85295;SDS011;76389;43.958;2.882;2024-02-15T13:36:59;6.25;;;1.77;;
85295;SDS011;76389;43.958;2.882;2024-02-15T13:39:27;5.35;;;1.58;;
85295;SDS011;76389;43.958;2.882;2024-02-15T13:41:59;6.38;;;1.85;;
85295;SDS011;76389;43.958;2.882;2024-02-15T13:44:26;3.88;;;1.52;;
85295;SDS011;76389;43.958;2.882;2024-02-15T13:46:52;8.60;;;2.17;;
85295;SDS011;76389;43.958;2.882;2024-02-15T13:49:21;4.10;;;1.45;;
85295;SDS011;76389;43.958;2.882;2024-02-15T13:51:47;5.40;;;1.88;;
85295;SDS011;76389;43.958;2.882;2024-02-15T13:54:14;7.00;;;1.92;;
85295;SDS011;76389;43.958;2.882;2024-02-15T13:56:40;6.07;;;1.75;;
85295;SDS011;76389;43.958;2.882;2024-02-15T13:59:06;7.78;;;2.08;;
85295;SDS011;76389;43.958;2.882;2024-02-15T14:01:33;4.53;;;1.38;;
85295;SDS011;76389;43.958;2.882;2024-02-15T14:03:59;4.72;;;1.30;;
85295;SDS011;76389;43.958;2.882;2024-02-15T14:06:26;12.70;;;1.92;;
85295;SDS011;76389;43.958;2.882;2024-02-15T14:08:52;5.75;;;1.88;;
85295;SDS011;76389;43.958;2.882;2024-02-15T14:11:18;7.93;;;2.30;;
85295;SDS011;76389;43.958;2.882;2024-02-15T14:13:44;7.30;;;1.85;;
85295;SDS011;76389;43.958;2.882;2024-02-15T14:16:10;8.68;;;1.95;;
85295;SDS011;76389;43.958;2.882;2024-02-15T14:18:36;10.25;;;2.20;;
85295;SDS011;76389;43.958;2.882;2024-02-15T14:21:02;5.82;;;1.98;;
85295;SDS011;76389;43.958;2.882;2024-02-15T14:23:29;6.97;;;2.03;;
85295;SDS011;76389;43.958;2.882;2024-02-15T14:25:55;4.68;;;1.60;;
85295;SDS011;76389;43.958;2.882;2024-02-15T14:28:25;5.03;;;2.03;;
85295;SDS011;76389;43.958;2.882;2024-02-15T14:30:52;4.10;;;1.40;;
85295;SDS011;76389;43.958;2.882;2024-02-15T14:33:38;4.35;;;1.30;;
85295;SDS011;76389;43.958;2.882;2024-02-15T14:36:04;6.55;;;1.88;;
85295;SDS011;76389;43.958;2.882;2024-02-15T14:38:31;6.55;;;1.40;;
85295;SDS011;76389;43.958;2.882;2024-02-15T14:40:59;6.93;;;1.50;;
85295;SDS011;76389;43.958;2.882;2024-02-15T14:43:27;2.92;;;1.00;;
85295;SDS011;76389;43.958;2.882;2024-02-15T14:45:53;6.80;;;1.33;;
85295;SDS011;76389;43.958;2.882;2024-02-15T14:48:21;4.78;;;1.60;;
85295;SDS011;76389;43.958;2.882;2024-02-15T14:50:49;4.53;;;1.25;;
85295;SDS011;76389;43.958;2.882;2024-02-15T14:53:15;6.47;;;1.67;;
85295;SDS011;76389;43.958;2.882;2024-02-15T14:55:43;7.25;;;1.80;;
85295;SDS011;76389;43.958;2.882;2024-02-15T14:58:12;5.85;;;1.95;;
85295;SDS011;76389;43.958;2.882;2024-02-15T15:00:39;5.93;;;1.35;;
85295;SDS011;76389;43.958;2.882;2024-02-15T15:03:07;6.53;;;1.63;;
85295;SDS011;76389;43.958;2.882;2024-02-15T15:05:33;6.05;;;1.85;;
85295;SDS011;76389;43.958;2.882;2024-02-15T15:08:19;7.28;;;1.27;;
85295;SDS011;76389;43.958;2.882;2024-02-15T15:11:05;4.85;;;1.60;;
85295;SDS011;76389;43.958;2.882;2024-02-15T15:13:51;7.45;;;1.38;;
85295;SDS011;76389;43.958;2.882;2024-02-15T15:16:17;4.32;;;1.45;;
85295;SDS011;76389;43.958;2.882;2024-02-15T15:18:46;4.15;;;1.35;;
85295;SDS011;76389;43.958;2.882;2024-02-15T15:21:13;5.05;;;1.52;;